Carey, OH (43316)

11:53 PM EDT on July 07, 2015 (GMT -0400)
Carey High School | | Change Station
CLOSE
Current Station
Personal Weather Station
Location: Carey, OH
Elevation: 823 ft
Nearby Weather Stations

Elev 823 ft 40.95 °N, 83.38 °W | Updated 13 seconds ago

Overcast
Overcast
64.8 °F
Feels Like 64.8 °F
N
0.9
Wind Variable Wind from NNW
Gusts 2.5 mph

Today
High -- | Low -- °F
--% Chance of Precip.
Yesterday
High -- | Low -- °F
Precip. -- in
6:08 AM 9:08 PM
Waning Gibbous, 58% visible
Pressure 30.01 in
Visibility 3.0 miles
Clouds Mostly Cloudy 700 ft
Overcast 1500 ft
Dew Point 64 °F
Humidity 97%
Rainfall 0.43 in
Snow Depth Not available.
UV 0.0 out of 12
Pollen 3.70 out of 12
Air Quality Not available.
Flu Activity Not available.
SPECI KFDY 080303Z AUTO 36012KT 3SM -RA BR BKN007 OVC015 18/17 A3001 RMK AO2 CIG 004V010 P0001 T01830167 $

More Conditions Fewer Conditions

Pressure 30.01 in
Visibility 3.0 miles
Clouds Mostly Cloudy 700 ft
Overcast 1500 ft
Dew Point 64 °F
Humidity 97%
Rainfall 0.43 in
Snow Depth Not available.
UV 0.0 out of 12
Pollen 3.70 out of 12
Air Quality Not available.
Flu Activity Not available.
SPECI KFDY 080303Z AUTO 36012KT 3SM -RA BR BKN007 OVC015 18/17 A3001 RMK AO2 CIG 004V010 P0001 T01830167 $

More Conditions Fewer Conditions

10-Day Weather Forecast

×

Almanac

Astronomy

Jul. 07, 2015 Rise Set
Actual Time
Civil Twilight
Nautical Twilight
Astronomical Twilight
Moon
Length of Visible Light
Length of Day
Tomorrow will be .
, % of the Moon is Illuminated

Today's Extremes

State Highs State Lows

Community

WunderPhotos

Upload Photos

1,836,037 photos uploaded!

WunderBlogs® & News

Nearby

Air Quality

  Air Quality AQ Index Pollutant
Not available.

Snow Depth

Station Depth Elevation

Earthquake Activity

City Distance Mag. Time & Date
Minimum magnitude displayed is 2.5.

Coastal Water Temperatures

Place Temperature

Stations

Nearby Weather Stations

Station Location Temp. Windchill Dew Point Humidity Wind Precip. Elev Updated Type